createdAt,value
2022-07-29T00:02:16.136Z,1.50
2022-07-29T00:04:42.861Z,1.48
2022-07-29T00:07:09.478Z,1.40
2022-07-29T00:09:44.876Z,1.40
2022-07-29T00:12:21.520Z,1.40
2022-07-29T00:14:53.615Z,1.45
2022-07-29T00:17:20.366Z,1.55
2022-07-29T00:19:46.949Z,1.60
2022-07-29T00:22:13.445Z,1.40
2022-07-29T00:24:39.956Z,1.60
2022-07-29T00:27:07.113Z,1.65
2022-07-29T00:29:34.899Z,1.55
2022-07-29T00:32:02.474Z,1.88
2022-07-29T00:34:47.522Z,1.70
2022-07-29T00:37:13.964Z,1.60
2022-07-29T00:39:40.454Z,1.67
2022-07-29T00:42:07.148Z,1.48
2022-07-29T00:44:38.612Z,1.52
2022-07-29T00:47:05.634Z,1.77
2022-07-29T00:49:32.749Z,1.40
2022-07-29T00:51:59.926Z,1.60
2022-07-29T00:54:27.829Z,1.60
2022-07-29T00:56:54.643Z,1.58
2022-07-29T00:59:21.272Z,1.50
2022-07-29T01:01:47.905Z,1.55
2022-07-29T01:04:14.773Z,1.42
2022-07-29T01:06:43.862Z,1.73
2022-07-29T01:09:11.921Z,1.80
2022-07-29T01:14:07.953Z,1.50
2022-07-29T01:16:43.359Z,1.60
2022-07-29T01:19:31.764Z,1.70
2022-07-29T01:22:03.128Z,1.70
2022-07-29T01:24:44.969Z,1.45
2022-07-29T01:27:16.318Z,1.52
2022-07-29T01:29:56.179Z,1.80
2022-07-29T01:32:29.546Z,2.10
2022-07-29T01:35:08.581Z,1.88
2022-07-29T01:37:46.312Z,1.73
2022-07-29T01:40:22.753Z,1.88
2022-07-29T01:43:01.030Z,1.80
2022-07-29T01:45:47.709Z,2.05
2022-07-29T01:48:19.094Z,1.67
2022-07-29T01:50:49.989Z,1.95
2022-07-29T01:53:26.555Z,2.10
2022-07-29T01:55:55.589Z,2.00
2022-07-29T01:58:27.057Z,1.50
2022-07-29T02:00:56.584Z,1.92
2022-07-29T02:03:24.213Z,1.90
2022-07-29T02:05:52.853Z,2.00
2022-07-29T02:08:20.782Z,1.83
2022-07-29T02:10:49.410Z,2.20
2022-07-29T02:13:18.308Z,1.92
2022-07-29T02:15:45.881Z,2.22
2022-07-29T02:18:17.836Z,2.03
2022-07-29T02:20:53.737Z,2.05
2022-07-29T02:23:24.907Z,2.15
2022-07-29T02:25:55.998Z,2.08
2022-07-29T02:28:28.198Z,1.85
2022-07-29T02:30:58.453Z,2.17
2022-07-29T02:33:26.462Z,2.28
2022-07-29T02:35:53.774Z,1.95
2022-07-29T02:38:40.416Z,2.17
2022-07-29T02:41:12.546Z,2.10
2022-07-29T02:43:41.606Z,2.30
2022-07-29T02:46:28.979Z,2.40
2022-07-29T02:49:02.898Z,2.20
2022-07-29T02:51:51.902Z,2.13
2022-07-29T02:54:24.877Z,2.15
2022-07-29T02:56:56.441Z,2.28
2022-07-29T02:59:27.046Z,2.10
2022-07-29T03:01:56.058Z,2.30
2022-07-29T03:04:25.709Z,2.30
2022-07-29T03:06:53.822Z,2.42
2022-07-29T03:09:21.775Z,2.25
2022-07-29T03:11:49.700Z,2.15
2022-07-29T03:14:20.560Z,2.40
2022-07-29T03:16:47.982Z,2.38
2022-07-29T03:19:14.956Z,2.20
2022-07-29T03:21:41.638Z,2.42
2022-07-29T03:24:10.871Z,2.40
2022-07-29T03:26:40.269Z,2.45
2022-07-29T03:29:07.160Z,2.17
2022-07-29T03:31:34.183Z,2.40
2022-07-29T03:34:00.964Z,2.33
2022-07-29T03:36:27.886Z,2.35
2022-07-29T03:38:55.684Z,2.45
2022-07-29T03:41:26.263Z,2.30
2022-07-29T03:43:54.586Z,2.22
2022-07-29T03:46:27.348Z,2.30
2022-07-29T03:48:59.458Z,2.30
2022-07-29T03:51:33.066Z,1.92
2022-07-29T03:54:00.482Z,2.47
2022-07-29T03:56:28.905Z,2.60
2022-07-29T03:58:56.531Z,2.33
2022-07-29T04:01:24.454Z,2.25
2022-07-29T04:03:51.305Z,2.10
2022-07-29T04:06:17.904Z,2.33
2022-07-29T04:08:44.468Z,2.22
2022-07-29T04:11:13.943Z,1.95
2022-07-29T04:13:40.469Z,2.70
2022-07-29T04:16:07.039Z,2.10
2022-07-29T04:18:33.824Z,2.10
2022-07-29T04:21:01.827Z,1.95
2022-07-29T04:23:33.395Z,2.17
2022-07-29T04:26:02.155Z,2.20
2022-07-29T04:28:29.127Z,2.20
2022-07-29T04:30:55.682Z,2.10
2022-07-29T04:33:22.286Z,2.42
2022-07-29T04:35:52.450Z,2.20
2022-07-29T04:38:23.166Z,2.22
2022-07-29T04:40:49.971Z,2.30
2022-07-29T04:43:16.906Z,2.22
2022-07-29T04:45:49.277Z,2.35
2022-07-29T04:48:15.790Z,2.22
2022-07-29T04:50:43.109Z,2.60
2022-07-29T04:53:09.818Z,2.30
2022-07-29T04:55:39.065Z,2.25
2022-07-29T04:58:05.917Z,2.22
2022-07-29T05:00:33.568Z,2.40
2022-07-29T05:03:00.462Z,2.42
2022-07-29T05:05:27.057Z,2.10
2022-07-29T05:07:53.664Z,2.45
2022-07-29T05:10:20.318Z,2.42
2022-07-29T05:12:46.796Z,2.38
2022-07-29T05:15:13.393Z,2.55
2022-07-29T05:17:40.115Z,2.75
2022-07-29T05:20:07.146Z,2.40
2022-07-29T05:22:33.841Z,2.63
2022-07-29T05:25:02.266Z,2.30
2022-07-29T05:27:32.122Z,2.70
2022-07-29T05:29:58.668Z,2.30
2022-07-29T05:32:25.416Z,2.50
2022-07-29T05:34:52.022Z,2.55
2022-07-29T05:37:20.519Z,2.58
2022-07-29T05:39:50.472Z,2.10
2022-07-29T05:42:23.830Z,2.25
2022-07-29T05:44:50.343Z,2.33
2022-07-29T05:47:17.099Z,2.60
2022-07-29T05:49:43.668Z,2.35
2022-07-29T05:52:10.444Z,2.15
2022-07-29T05:54:37.580Z,2.50
2022-07-29T05:57:04.152Z,2.45
2022-07-29T05:59:30.819Z,2.35
2022-07-29T06:01:58.493Z,2.40
2022-07-29T06:04:25.301Z,2.70
2022-07-29T06:06:51.940Z,2.60
2022-07-29T06:09:18.557Z,2.80
2022-07-29T06:11:45.066Z,2.22
2022-07-29T06:14:12.204Z,2.38
2022-07-29T06:16:38.950Z,2.45
2022-07-29T06:19:05.766Z,2.40
2022-07-29T06:21:32.301Z,2.50
2022-07-29T06:23:58.876Z,2.67
2022-07-29T06:26:30.741Z,2.30
2022-07-29T06:28:58.151Z,2.58
2022-07-29T06:31:24.854Z,2.67
2022-07-29T06:33:51.420Z,2.45
2022-07-29T06:36:21.717Z,2.63
2022-07-29T06:38:51.507Z,2.45
2022-07-29T06:41:19.175Z,2.40
2022-07-29T06:43:52.091Z,2.45
2022-07-29T06:46:22.075Z,2.65
2022-07-29T06:48:49.739Z,2.30
2022-07-29T06:51:22.977Z,2.22
2022-07-29T06:54:00.282Z,2.40
2022-07-29T06:56:40.307Z,2.70
2022-07-29T06:59:11.685Z,2.55
2022-07-29T07:01:43.622Z,2.50
2022-07-29T07:04:10.787Z,2.58
2022-07-29T07:06:37.939Z,2.40
2022-07-29T07:09:05.101Z,2.72
2022-07-29T07:11:31.746Z,2.50
2022-07-29T07:14:03.015Z,2.53
2022-07-29T07:16:30.865Z,2.78
2022-07-29T07:18:57.547Z,2.63
2022-07-29T07:21:24.198Z,2.88
2022-07-29T07:23:50.681Z,2.45
2022-07-29T07:26:17.188Z,2.88
2022-07-29T07:28:43.738Z,2.80
2022-07-29T07:31:10.697Z,2.65
2022-07-29T07:33:37.261Z,2.80
2022-07-29T07:36:04.134Z,2.83
2022-07-29T07:38:30.748Z,2.70
2022-07-29T07:40:57.322Z,2.70
2022-07-29T07:43:23.971Z,2.63
2022-07-29T07:45:50.704Z,2.90
2022-07-29T07:48:17.298Z,2.60
2022-07-29T07:50:44.862Z,2.70
2022-07-29T07:53:11.732Z,2.80
2022-07-29T07:56:09.260Z,2.80
2022-07-29T07:58:31.418Z,2.88
2022-07-29T08:00:58.076Z,2.55
2022-07-29T08:03:24.692Z,2.80
2022-07-29T08:05:55.284Z,2.60
2022-07-29T08:08:22.049Z,2.38
2022-07-29T08:10:54.636Z,2.30
2022-07-29T08:13:22.683Z,2.50
2022-07-29T08:15:58.460Z,2.60
2022-07-29T08:18:26.232Z,3.10
2022-07-29T08:20:52.908Z,2.70
2022-07-29T08:23:20.148Z,2.90
2022-07-29T08:25:46.731Z,2.67
2022-07-29T08:28:17.393Z,2.42
2022-07-29T08:30:43.929Z,2.40
2022-07-29T08:33:10.476Z,2.55
2022-07-29T08:35:37.066Z,2.33
2022-07-29T08:38:04.462Z,2.65
2022-07-29T08:40:32.643Z,2.55
2022-07-29T08:43:00.744Z,2.42
2022-07-29T08:45:30.223Z,2.80
2022-07-29T08:47:57.200Z,2.80
2022-07-29T08:50:26.802Z,2.60
2022-07-29T08:52:57.926Z,2.45
2022-07-29T08:55:26.736Z,2.50
2022-07-29T08:57:57.262Z,3.05
2022-07-29T09:00:26.156Z,2.88
2022-07-29T09:02:58.187Z,2.97
2022-07-29T09:05:26.823Z,2.92
2022-07-29T09:07:53.683Z,2.70
2022-07-29T09:10:20.899Z,2.90
2022-07-29T09:12:47.606Z,2.72
2022-07-29T09:15:14.144Z,2.80
2022-07-29T09:17:42.748Z,2.60
2022-07-29T09:20:14.766Z,2.60
2022-07-29T09:22:42.314Z,3.85
2022-07-29T09:25:09.627Z,2.40
2022-07-29T09:27:36.664Z,3.00
2022-07-29T09:30:11.398Z,2.50
2022-07-29T09:32:57.658Z,2.85
2022-07-29T09:35:25.923Z,2.40
2022-07-29T09:37:52.876Z,2.70
2022-07-29T09:40:37.593Z,1.95
2022-07-29T09:43:14.395Z,2.10
2022-07-29T09:45:41.035Z,2.50
2022-07-29T09:48:18.582Z,2.42
2022-07-29T09:50:47.844Z,2.40
2022-07-29T09:53:31.758Z,2.10
2022-07-29T09:55:58.435Z,1.95
2022-07-29T09:58:25.363Z,2.40
2022-07-29T10:00:53.879Z,2.10
2022-07-29T10:03:20.558Z,2.05
2022-07-29T10:06:06.111Z,2.60
2022-07-29T10:08:32.967Z,2.20
2022-07-29T10:11:12.123Z,2.40
2022-07-29T10:13:39.389Z,2.28
2022-07-29T10:16:07.354Z,2.60
2022-07-29T10:18:35.335Z,2.08
2022-07-29T10:21:02.397Z,2.60
2022-07-29T10:23:46.118Z,2.22
2022-07-29T10:26:14.134Z,2.30
2022-07-29T10:28:40.640Z,2.40
2022-07-29T10:31:13.156Z,2.40
2022-07-29T10:34:26.475Z,2.30
2022-07-29T10:37:05.227Z,2.30
2022-07-29T10:39:53.991Z,2.25
2022-07-29T10:42:33.887Z,2.50
2022-07-29T10:45:02.865Z,2.33
2022-07-29T10:47:31.619Z,2.45
2022-07-29T10:50:01.208Z,2.83
2022-07-29T10:52:58.018Z,2.63
2022-07-29T10:55:45.418Z,2.70
2022-07-29T10:58:17.781Z,2.70
2022-07-29T11:00:45.654Z,2.00
2022-07-29T11:03:50.477Z,2.17
2022-07-29T11:06:26.578Z,3.10
2022-07-29T11:09:25.796Z,3.25
2022-07-29T11:12:02.264Z,3.90
2022-07-29T11:14:59.929Z,3.05
2022-07-29T11:17:26.860Z,2.38
2022-07-29T11:20:31.768Z,2.30
2022-07-29T11:22:59.348Z,2.05
2022-07-29T11:28:23.229Z,1.88
2022-07-29T11:30:54.772Z,1.95
2022-07-29T11:33:54.138Z,2.05
2022-07-29T11:36:28.384Z,2.30
2022-07-29T11:39:36.404Z,2.25
2022-07-29T11:42:32.157Z,2.10
2022-07-29T11:45:41.085Z,2.00
2022-07-29T11:47:55.650Z,2.45
2022-07-29T11:50:36.558Z,2.30
2022-07-29T11:53:12.166Z,2.17
2022-07-29T11:55:51.514Z,2.13
2022-07-29T11:58:25.144Z,2.35
2022-07-29T12:00:53.076Z,2.22
2022-07-29T12:07:02.747Z,2.00
2022-07-29T12:09:11.248Z,2.45
2022-07-29T12:11:41.436Z,2.40
2022-07-29T12:14:08.066Z,2.63
2022-07-29T12:16:38.285Z,2.78
2022-07-29T12:19:05.849Z,2.30
2022-07-29T12:21:52.317Z,2.65
2022-07-29T12:24:23.575Z,3.10
2022-07-29T12:26:55.163Z,2.40
2022-07-29T12:29:33.938Z,2.72
2022-07-29T12:32:02.089Z,2.78
2022-07-29T12:34:30.334Z,2.40
2022-07-29T12:36:57.073Z,2.72
2022-07-29T12:39:23.907Z,2.45
2022-07-29T12:41:50.538Z,2.90
2022-07-29T12:44:17.014Z,2.40
2022-07-29T12:46:43.678Z,2.75
2022-07-29T12:49:10.385Z,2.70
2022-07-29T12:51:39.402Z,2.40
2022-07-29T12:54:11.699Z,2.50
2022-07-29T12:56:43.745Z,2.65
2022-07-29T12:59:18.663Z,2.38
2022-07-29T13:01:46.067Z,2.53
2022-07-29T13:04:25.813Z,2.38
2022-07-29T13:07:01.330Z,2.70
2022-07-29T13:09:41.635Z,2.47
2022-07-29T13:12:13.479Z,2.72
2022-07-29T13:14:45.932Z,2.92
2022-07-29T13:17:16.540Z,2.67
2022-07-29T13:19:45.957Z,2.50
2022-07-29T13:22:18.158Z,2.28
2022-07-29T13:25:03.876Z,2.80
2022-07-29T13:27:35.243Z,2.42
2022-07-29T13:30:04.747Z,2.50
2022-07-29T13:32:35.521Z,2.30
2022-07-29T13:35:04.970Z,2.78
2022-07-29T13:37:34.916Z,2.83
2022-07-29T13:40:04.049Z,2.50
2022-07-29T13:42:30.733Z,2.70
2022-07-29T13:44:57.317Z,2.22
2022-07-29T13:47:32.332Z,2.30
2022-07-29T13:50:00.567Z,3.33
2022-07-29T13:52:27.151Z,2.75
2022-07-29T13:54:54.361Z,2.65
2022-07-29T13:57:20.932Z,3.08
2022-07-29T13:59:51.902Z,3.10
2022-07-29T14:02:20.457Z,2.88
2022-07-29T14:04:47.211Z,3.63
2022-07-29T14:07:16.314Z,2.72
2022-07-29T14:09:43.587Z,3.20
2022-07-29T14:12:10.675Z,2.40
2022-07-29T14:14:37.732Z,3.00
2022-07-29T14:17:07.227Z,3.17
2022-07-29T14:19:36.738Z,2.80
2022-07-29T14:22:08.502Z,2.63
2022-07-29T14:24:37.271Z,3.00
2022-07-29T14:27:05.351Z,2.80
2022-07-29T14:29:36.828Z,3.00
2022-07-29T14:32:08.269Z,2.95
2022-07-29T14:34:36.190Z,3.10
2022-07-29T14:37:03.869Z,2.67
2022-07-29T14:39:31.992Z,2.92
2022-07-29T14:41:59.623Z,3.47
2022-07-29T14:44:32.191Z,3.20
2022-07-29T14:47:07.676Z,3.25
2022-07-29T14:49:35.262Z,3.20
2022-07-29T14:52:02.098Z,3.10
2022-07-29T14:54:28.780Z,3.70
2022-07-29T14:56:58.170Z,4.10
2022-07-29T14:59:25.483Z,3.47
2022-07-29T15:01:52.074Z,3.40
2022-07-29T15:04:18.591Z,4.13
2022-07-29T15:06:45.205Z,4.10
2022-07-29T15:09:11.784Z,3.83
2022-07-29T15:11:38.950Z,4.28
2022-07-29T15:14:08.758Z,3.90
2022-07-29T15:16:39.502Z,4.00
2022-07-29T15:19:10.267Z,3.22
2022-07-29T15:21:41.641Z,2.85
2022-07-29T15:24:16.366Z,3.10
2022-07-29T15:26:44.368Z,2.75
2022-07-29T15:29:10.862Z,2.90
2022-07-29T15:31:37.664Z,2.40
2022-07-29T15:34:06.231Z,2.50
2022-07-29T15:36:51.424Z,2.33
2022-07-29T15:39:19.161Z,2.47
2022-07-29T15:41:45.674Z,2.10
2022-07-29T15:44:12.185Z,2.33
2022-07-29T15:46:57.424Z,2.50
2022-07-29T15:49:24.541Z,2.40
2022-07-29T15:51:51.061Z,2.03
2022-07-29T15:54:17.787Z,2.35
2022-07-29T15:56:44.290Z,2.00
2022-07-29T15:59:10.890Z,1.90
2022-07-29T16:01:49.418Z,1.80
2022-07-29T16:04:17.349Z,1.80
2022-07-29T16:06:45.789Z,1.90
2022-07-29T16:09:12.634Z,1.73
2022-07-29T16:11:39.101Z,2.00
2022-07-29T16:14:05.960Z,1.67
2022-07-29T16:16:35.984Z,1.92
2022-07-29T16:19:03.205Z,1.60
2022-07-29T16:21:31.540Z,1.77
2022-07-29T16:24:01.173Z,1.67
2022-07-29T16:26:28.321Z,1.70
2022-07-29T16:28:56.130Z,1.77
2022-07-29T16:31:23.096Z,1.85
2022-07-29T16:33:55.248Z,1.88
2022-07-29T16:36:23.215Z,2.20
2022-07-29T16:38:50.601Z,1.95
2022-07-29T16:41:17.153Z,1.88
2022-07-29T16:43:43.607Z,1.70
2022-07-29T16:46:14.686Z,1.67
2022-07-29T16:48:45.761Z,1.85
2022-07-29T16:51:14.229Z,2.00
2022-07-29T16:53:41.812Z,1.80
2022-07-29T16:56:12.788Z,1.90
2022-07-29T16:58:43.896Z,2.00
2022-07-29T17:01:11.375Z,1.70
2022-07-29T17:04:00.184Z,2.03
2022-07-29T17:06:27.708Z,1.95
2022-07-29T17:08:54.253Z,2.03
2022-07-29T17:11:20.737Z,2.60
2022-07-29T17:13:47.370Z,2.03
2022-07-29T17:16:13.996Z,1.95
2022-07-29T17:18:40.657Z,2.08
2022-07-29T17:21:07.135Z,2.08
2022-07-29T17:23:33.701Z,2.00
2022-07-29T17:26:00.179Z,1.92
2022-07-29T17:28:28.926Z,2.10
2022-07-29T17:30:55.495Z,2.10
2022-07-29T17:33:23.462Z,2.00
2022-07-29T17:36:08.729Z,1.80
2022-07-29T17:38:35.229Z,2.10
2022-07-29T17:41:01.851Z,1.80
2022-07-29T17:43:34.251Z,1.88
2022-07-29T17:46:03.091Z,1.90
2022-07-29T17:48:29.715Z,1.73
2022-07-29T17:50:56.546Z,2.13
2022-07-29T17:53:23.163Z,1.90
2022-07-29T17:55:49.704Z,2.15
2022-07-29T17:58:16.351Z,1.95
2022-07-29T18:00:43.622Z,2.13
2022-07-29T18:03:10.403Z,2.00
2022-07-29T18:05:37.524Z,1.90
2022-07-29T18:08:04.266Z,2.60
2022-07-29T18:10:31.273Z,2.33
2022-07-29T18:12:57.867Z,2.47
2022-07-29T18:15:24.386Z,2.17
2022-07-29T18:17:57.072Z,2.40
2022-07-29T18:20:25.151Z,1.90
2022-07-29T18:22:54.574Z,2.10
2022-07-29T18:25:21.270Z,1.98
2022-07-29T18:27:47.847Z,2.00
2022-07-29T18:30:17.518Z,2.10
2022-07-29T18:32:59.241Z,2.42
2022-07-29T18:35:30.818Z,2.13
2022-07-29T18:38:00.852Z,2.03
2022-07-29T18:40:29.822Z,2.17
2022-07-29T18:42:56.568Z,2.22
2022-07-29T18:45:23.269Z,2.50
2022-07-29T18:47:55.673Z,2.20
2022-07-29T18:50:28.803Z,2.42
2022-07-29T18:52:58.466Z,2.28
2022-07-29T18:55:26.146Z,2.38
2022-07-29T18:57:53.188Z,2.50
2022-07-29T19:00:23.993Z,2.53
2022-07-29T19:02:58.468Z,2.53
2022-07-29T19:05:25.136Z,2.40
2022-07-29T19:07:51.726Z,2.20
2022-07-29T19:10:18.678Z,2.30
2022-07-29T19:12:45.234Z,2.22
2022-07-29T19:15:19.980Z,3.22
2022-07-29T19:17:49.736Z,3.00
2022-07-29T19:20:16.521Z,3.10
2022-07-29T19:22:43.032Z,3.22
2022-07-29T19:25:10.048Z,3.30
2022-07-29T19:27:36.863Z,3.40
2022-07-29T19:30:06.485Z,4.30
2022-07-29T19:32:33.157Z,3.60
2022-07-29T19:35:18.571Z,3.70
2022-07-29T19:37:45.064Z,3.63
2022-07-29T19:40:12.631Z,3.63
2022-07-29T19:42:39.422Z,3.40
2022-07-29T19:45:06.565Z,3.30
2022-07-29T19:47:33.119Z,3.47
2022-07-29T19:50:00.680Z,4.43
2022-07-29T19:52:32.567Z,3.50
2022-07-29T19:54:59.824Z,3.70
2022-07-29T19:57:28.564Z,3.38
2022-07-29T20:00:08.608Z,3.70
2022-07-29T20:02:39.290Z,3.63
2022-07-29T20:07:35.865Z,5.25
2022-07-29T20:10:06.154Z,5.03
2022-07-29T20:12:33.074Z,5.05
2022-07-29T20:15:00.217Z,4.25
2022-07-29T20:17:27.333Z,4.32
2022-07-29T20:19:54.320Z,4.32
2022-07-29T20:24:49.111Z,5.88
2022-07-29T20:27:15.655Z,5.00
2022-07-29T20:29:42.309Z,3.90
2022-07-29T20:32:09.023Z,3.88
2022-07-29T20:34:35.520Z,4.75
2022-07-29T20:37:02.748Z,4.80
2022-07-29T20:39:30.319Z,4.65
2022-07-29T20:41:56.827Z,4.75
2022-07-29T20:44:24.290Z,4.55
2022-07-29T20:46:51.023Z,4.45
2022-07-29T20:49:17.694Z,4.22
2022-07-29T20:51:44.367Z,4.43
2022-07-29T20:54:11.732Z,4.22
2022-07-29T20:56:38.826Z,4.65
2022-07-29T20:59:05.344Z,4.57
2022-07-29T21:01:31.951Z,4.88
2022-07-29T21:03:58.622Z,4.82
2022-07-29T21:06:25.146Z,4.68
2022-07-29T21:08:51.797Z,4.50
2022-07-29T21:11:18.634Z,4.72
2022-07-29T21:14:05.206Z,4.95
2022-07-29T21:16:33.635Z,4.60
2022-07-29T21:19:00.245Z,4.60
2022-07-29T21:21:26.952Z,4.47
2022-07-29T21:23:53.533Z,4.63
2022-07-29T21:26:20.004Z,4.10
2022-07-29T21:28:46.498Z,4.97
2022-07-29T21:31:17.093Z,4.38
2022-07-29T21:33:46.370Z,5.03
2022-07-29T21:36:47.227Z,4.68
2022-07-29T21:39:06.797Z,5.40
2022-07-29T21:41:34.449Z,5.65
2022-07-29T21:44:01.361Z,5.60
2022-07-29T21:46:28.250Z,5.32
2022-07-29T21:48:54.912Z,5.43
2022-07-29T21:51:21.533Z,6.15
2022-07-29T21:53:48.091Z,5.43
2022-07-29T21:56:15.211Z,4.93
2022-07-29T21:58:44.492Z,5.00
2022-07-29T22:01:11.147Z,5.13
2022-07-29T22:03:37.727Z,5.25
2022-07-29T22:06:04.542Z,5.30
2022-07-29T22:08:31.157Z,4.82
2022-07-29T22:10:57.619Z,4.60
2022-07-29T22:13:24.159Z,5.28
2022-07-29T22:15:50.746Z,4.97
2022-07-29T22:18:20.420Z,4.72
2022-07-29T22:20:48.253Z,4.72
2022-07-29T22:23:14.861Z,4.97
2022-07-29T22:25:41.341Z,4.50
2022-07-29T22:28:07.851Z,4.60
2022-07-29T22:30:34.466Z,4.68
2022-07-29T22:33:01.050Z,4.38
2022-07-29T22:35:27.524Z,4.05
2022-07-29T22:37:54.229Z,4.25
2022-07-29T22:40:20.817Z,4.57
2022-07-29T22:42:47.419Z,4.40
2022-07-29T22:45:14.064Z,4.40
2022-07-29T22:47:48.133Z,4.70
2022-07-29T22:50:15.758Z,3.88
2022-07-29T22:52:42.330Z,4.00
2022-07-29T22:55:09.138Z,4.05
2022-07-29T22:57:35.758Z,3.72
2022-07-29T23:00:02.445Z,3.90
2022-07-29T23:02:29.259Z,4.20
2022-07-29T23:04:56.165Z,4.18
2022-07-29T23:07:23.385Z,4.35
2022-07-29T23:09:49.958Z,3.70
2022-07-29T23:12:16.531Z,4.32
2022-07-29T23:14:43.827Z,3.92
2022-07-29T23:17:10.401Z,4.38
2022-07-29T23:19:36.944Z,4.10
2022-07-29T23:22:03.689Z,4.55
2022-07-29T23:24:30.142Z,4.10
2022-07-29T23:26:56.610Z,4.57
2022-07-29T23:29:23.196Z,4.57
2022-07-29T23:31:49.793Z,4.55
2022-07-29T23:34:16.391Z,4.45
2022-07-29T23:36:42.964Z,4.22
2022-07-29T23:39:11.412Z,4.25
2022-07-29T23:41:38.058Z,4.25
2022-07-29T23:44:05.102Z,4.32
2022-07-29T23:46:31.749Z,4.32
2022-07-29T23:48:58.447Z,4.53
2022-07-29T23:51:25.002Z,4.30
2022-07-29T23:53:53.352Z,4.53
2022-07-29T23:56:21.149Z,4.82
2022-07-29T23:58:47.665Z,4.70
